KMOD/MOD METAR and TAF weather

Enter ICAO airport designator
Station Type Date Time Source
KMOD METAR 2019/10/23 20:53 UTC NOAA

KMOD 232053Z 31010KT 10SM CLR 27/08 A2995 RMK AO2 SLP139 T02670078 58019


Station Type Date Time Source
KMOD Decoded METAR 2019/10/23 20:53 UTC NOAA

MODESTO CITY CO SHAM FLD, CA, United States (KMOD) 37-37N 120-57W 29M
Oct 23, 2019 - 04:53 PM EDT / 2019.10.23 2053 UTC
Wind: from the NW (310 degrees) at 12 MPH (10 KT):0
Visibility: 10 mile(s):0
Sky conditions: clear
Temperature: 80.1 F (26.7 C)
Dew Point: 46.0 F (7.8 C)
Relative Humidity: 30%
Pressure (altimeter): 29.95 in. Hg (1014 hPa)
Pressure tendency: 0.06 inches (1.9 hPa) lower than three hours ago
ob: KMOD 232053Z 31010KT 10SM CLR 27/08 A2995 RMK AO2 SLP139 T02670078 58019
cycle: 21

Station Type Date Time Source
KMOD TAF 2019/10/23 18:39 UTC NOAA

TAF KMOD 231727Z 2318/2418 33011KT P6SM SKC
FM240300 VRB05KT P6SM SKC

Example: see airport list